Time;durP1;ratioP1;P1;durP2;ratioP2;P2;SDS_P1;SDS_P2;PMS_P1;PMS_P2;Temp;Humidity;BMP_temperature;BMP_pressure;BME280_temperature;BME280_humidity;BME280_pressure;Samples;Min_cycle;Max_cycle;Signal;HPM_P1;HPM_P2
2022/01/21 13:03:49;;;;;;;6.23;2.60;;;13.80;50.50;;;;;;5089693;27;20591;-78
2022/01/21 13:06:27;;;;;;;7.07;2.50;;;9.70;57.80;;;;;;5077619;28;20234;-75
2022/01/21 13:09:05;;;;;;;7.53;2.70;;;7.50;63.50;;;;;;5102530;28;20256;-75
2022/01/21 13:11:40;;;;;;;8.00;2.70;;;5.80;68.90;;;;;;5099368;28;20270;-74
2022/01/21 13:14:25;;;;;;;8.53;2.30;;;4.70;72.10;;;;;;5091499;28;20195;-76
2022/01/21 13:16:56;;;;;;;8.70;4.77;;;4.00;75.20;;;;;;5090569;28;20672;-78
2022/01/21 13:19:26;;;;;;;9.73;3.20;;;3.40;77.10;;;;;;5090747;28;20202;-80
2022/01/21 13:21:54;;;;;;;7.30;2.53;;;3.00;79.00;;;;;;5089267;28;20253;-77
2022/01/21 13:24:28;;;;;;;7.50;2.33;;;2.70;79.70;;;;;;5090377;28;20213;-79
2022/01/21 13:26:58;;;;;;;7.50;2.40;;;2.60;80.90;;;;;;5090591;28;20289;-73
2022/01/21 13:29:32;;;;;;;8.90;2.87;;;2.80;80.30;;;;;;5090272;28;20960;-79
2022/01/21 13:32:02;;;;;;;8.30;4.10;;;2.70;79.50;;;;;;5080464;28;20257;-79
2022/01/21 13:34:35;;;;;;;8.67;2.50;;;2.90;79.60;;;;;;5061702;28;20207;-79
2022/01/21 13:37:05;;;;;;;6.90;2.23;;;2.90;79.60;;;;;;5066908;28;20265;-79
2022/01/21 13:39:36;;;;;;;7.80;2.63;;;2.70;78.50;;;;;;5074990;28;20225;-77
2022/01/21 13:42:10;;;;;;;4.63;2.30;;;2.70;79.40;;;;;;5071882;28;20239;-81
2022/01/21 13:44:42;;;;;;;4.37;1.90;;;2.80;79.80;;;;;;5075644;28;20204;-80
2022/01/21 13:47:28;;;;;;;6.87;2.47;;;2.40;79.90;;;;;;5070550;28;20689;-79
2022/01/21 13:49:59;;;;;;;7.73;2.70;;;2.40;80.70;;;;;;5071035;28;20200;-79
2022/01/21 13:52:44;;;;;;;8.10;1.97;;;2.30;81.10;;;;;;5058868;28;20258;-80
2022/01/21 13:55:26;;;;;;;12.80;2.60;;;2.10;82.30;;;;;;5067317;28;20244;-81
2022/01/21 13:57:56;;;;;;;5.17;2.20;;;1.90;83.30;;;;;;5053174;28;20609;-78
2022/01/21 14:00:30;;;;;;;7.93;2.67;;;1.90;83.90;;;;;;5055763;28;20205;-79
2022/01/21 14:03:09;;;;;;;7.93;2.17;;;1.80;84.40;;;;;;5051818;28;20234;-80
2022/01/21 14:05:55;;;;;;;7.13;2.37;;;1.80;84.50;;;;;;5049370;28;20614;-80
2022/01/21 14:08:30;;;;;;;7.80;2.50;;;1.70;85.50;;;;;;5051616;28;20565;-78
2022/01/21 14:11:02;;;;;;;7.07;2.40;;;1.60;86.30;;;;;;5051691;28;20200;-75
2022/01/21 14:13:33;;;;;;;7.83;2.67;;;1.60;87.40;;;;;;5043617;28;20185;-77
2022/01/21 14:16:04;;;;;;;6.77;2.50;;;1.60;88.30;;;;;;5036380;28;20639;-79
2022/01/21 14:18:36;;;;;;;7.70;2.93;;;1.60;88.50;;;;;;5037330;28;20288;-80
2022/01/21 14:21:14;;;;;;;6.07;2.53;;;1.60;87.60;;;;;;5050418;28;20203;-78
2022/01/21 14:23:44;;;;;;;8.43;3.07;;;1.50;88.10;;;;;;5057730;28;20926;-79
2022/01/21 14:26:15;;;;;;;8.43;3.47;;;1.40;88.30;;;;;;5058115;28;20212;-80
2022/01/21 14:28:47;;;;;;;8.57;2.90;;;1.30;88.80;;;;;;5057611;28;20310;-80
2022/01/21 14:31:33;;;;;;;7.43;3.03;;;1.30;90.00;;;;;;5056652;28;20959;-80
2022/01/21 14:34:06;;;;;;;7.97;3.03;;;1.20;90.10;;;;;;5057469;28;20438;-80
2022/01/21 14:36:36;;;;;;;7.60;3.20;;;1.30;90.30;;;;;;5057152;28;20207;-80
2022/01/21 14:39:14;;;;;;;8.90;3.30;;;1.30;90.00;;;;;;5057735;28;20208;-79
2022/01/21 14:41:47;;;;;;;9.90;3.20;;;1.30;90.00;;;;;;5056866;28;20621;-80
2022/01/21 14:44:40;;;;;;;6.60;3.60;;;1.30;90.00;;;;;;5055032;28;20223;-79
2022/01/21 14:47:12;;;;;;;7.37;3.33;;;1.30;90.20;;;;;;5055495;28;20216;-78
2022/01/21 14:49:43;;;;;;;8.43;3.07;;;1.30;90.80;;;;;;5055533;28;20238;-76
2022/01/21 14:55:11;;;;;;;11.73;3.70;;;1.10;90.90;;;;;;5048502;28;20491;-80
2022/01/21 14:57:47;;;;;;;7.73;2.87;;;1.10;91.50;;;;;;5054906;28;20447;-76
2022/01/21 15:00:28;;;;;;;7.30;2.37;;;1.10;91.50;;;;;;5052863;28;20443;-75
2022/01/21 15:03:11;;;;;;;6.00;2.93;;;1.00;91.70;;;;;;5063149;28;20258;-75
2022/01/21 15:05:42;;;;;;;6.17;2.50;;;0.90;91.60;;;;;;5056942;28;20204;-77
2022/01/21 15:08:18;;;;;;;9.20;2.90;;;0.90;91.20;;;;;;5058058;28;20543;-75
2022/01/21 15:10:51;;;;;;;7.47;3.00;;;0.80;91.50;;;;;;5055158;28;20458;-78
2022/01/21 15:16:13;;;;;;;14.93;2.93;;;0.70;91.50;;;;;;5046805;28;20464;-77
2022/01/21 15:18:42;;;;;;;8.30;3.23;;;0.60;91.80;;;;;;5048893;28;20466;-77
2022/01/21 15:21:17;;;;;;;7.20;2.43;;;0.60;92.20;;;;;;5045858;28;20689;-76
2022/01/21 15:23:51;;;;;;;7.03;2.77;;;0.60;92.30;;;;;;5041991;28;20476;-77
2022/01/21 15:26:42;;;;;;;8.43;2.73;;;0.40;92.80;;;;;;5052072;28;20391;-76
2022/01/21 15:29:11;;;;;;;7.67;2.90;;;0.50;92.70;;;;;;5046895;28;20815;-75
2022/01/21 15:31:40;;;;;;;10.13;2.90;;;0.50;93.00;;;;;;5052610;28;20458;-77
2022/01/21 15:34:09;;;;;;;10.57;3.20;;;0.40;93.30;;;;;;5045152;28;20537;-76
2022/01/21 15:36:42;;;;;;;5.37;2.40;;;0.40;93.60;;;;;;5047501;28;20461;-78
2022/01/21 15:39:13;;;;;;;6.33;2.50;;;0.50;93.50;;;;;;5057440;28;20446;-74
2022/01/21 15:41:42;;;;;;;11.17;2.60;;;0.40;93.80;;;;;;5061205;28;20501;-77
2022/01/21 15:44:11;;;;;;;6.67;2.13;;;0.40;94.10;;;;;;5055582;28;20524;-78
2022/01/21 15:46:42;;;;;;;7.90;2.53;;;0.30;94.50;;;;;;5058201;28;20480;-79
2022/01/21 15:49:12;;;;;;;7.50;3.10;;;0.20;95.00;;;;;;5047975;28;20456;-76
2022/01/21 15:51:41;;;;;;;9.57;3.27;;;0.20;95.70;;;;;;5048837;28;20480;-75
2022/01/21 15:54:11;;;;;;;11.17;4.23;;;0.10;95.50;;;;;;5059960;28;20984;-76
2022/01/21 15:56:39;;;;;;;9.70;3.00;;;0.10;95.80;;;;;;5058038;28;20940;-76
2022/01/21 15:59:16;;;;;;;8.37;3.13;;;0.10;96.30;;;;;;5041376;28;20530;-75
2022/01/21 16:01:44;;;;;;;7.97;2.97;;;0.00;97.00;;;;;;5053691;28;20450;-74
2022/01/21 16:04:15;;;;;;;9.03;3.10;;;0.00;97.50;;;;;;5051550;28;20493;-74
2022/01/21 16:06:44;;;;;;;7.23;3.10;;;-0.10;98.30;;;;;;5059628;28;20489;-77
2022/01/21 16:09:14;;;;;;;8.63;3.50;;;-0.10;99.20;;;;;;5057765;28;20497;-76
2022/01/21 16:11:44;;;;;;;9.27;3.67;;;-0.30;99.90;;;;;;5054597;28;20494;-78
2022/01/21 16:14:12;;;;;;;11.37;3.63;;;-0.30;99.90;;;;;;5056965;28;20463;-77
2022/01/21 16:16:47;;;;;;;8.93;3.37;;;-0.40;99.90;;;;;;5051443;28;20947;-80
2022/01/21 16:19:17;;;;;;;8.93;3.00;;;-0.40;99.90;;;;;;5035381;28;20458;-79
2022/01/21 16:21:48;;;;;;;7.47;3.13;;;-0.50;99.90;;;;;;5041009;28;20519;-80
2022/01/21 18:17:33;;;;;;;9.53;4.10;;;-0.50;99.90;;;;;;5378227;23;20524;-78
2022/01/21 18:20:02;;;;;;;7.83;4.43;;;-0.50;99.90;;;;;;4899160;29;20471;-78
2022/01/21 18:22:32;;;;;;;8.93;4.97;;;-0.60;99.90;;;;;;4889334;29;20963;-77
2022/01/21 18:25:00;;;;;;;12.57;5.30;;;-0.50;99.90;;;;;;4901106;29;20488;-76
2022/01/21 18:27:28;;;;;;;11.40;5.40;;;-0.50;99.90;;;;;;4899616;29;20495;-78
2022/01/21 18:29:58;;;;;;;12.03;5.73;;;-0.60;99.90;;;;;;4888910;29;20613;-76
2022/01/21 18:32:27;;;;;;;9.87;4.40;;;-0.50;99.90;;;;;;4887732;29;20525;-76
2022/01/21 18:34:57;;;;;;;6.83;4.37;;;-0.50;99.90;;;;;;4895063;29;20883;-76
2022/01/21 18:37:25;;;;;;;7.07;4.10;;;-0.50;99.90;;;;;;4892077;29;20513;-76
2022/01/21 18:39:53;;;;;;;11.43;5.03;;;-0.50;99.90;;;;;;4897891;29;20452;-75
2022/01/21 18:42:29;;;;;;;9.90;5.00;;;-0.50;99.90;;;;;;4894999;29;20513;-78
2022/01/21 18:45:06;;;;;;;9.97;4.83;;;-0.40;99.90;;;;;;4896171;29;20525;-77
2022/01/21 18:47:40;;;;;;;9.27;4.43;;;-0.50;99.90;;;;;;4897885;29;20453;-75
2022/01/21 18:50:13;;;;;;;10.57;4.70;;;-0.50;99.90;;;;;;4895120;29;20473;-77
2022/01/21 18:52:42;;;;;;;9.33;4.43;;;-0.40;99.90;;;;;;4890008;29;20479;-77
2022/01/21 18:55:12;;;;;;;10.17;5.13;;;-0.40;99.90;;;;;;4890117;29;20858;-78
2022/01/21 18:57:41;;;;;;;10.63;4.50;;;-0.40;99.90;;;;;;4895386;29;20465;-75
2022/01/21 19:00:13;;;;;;;9.03;5.03;;;-0.40;99.90;;;;;;4899477;29;20466;-79
2022/01/21 19:02:43;;;;;;;8.17;4.67;;;-0.40;99.90;;;;;;4900720;29;20443;-77
2022/01/21 19:05:18;;;;;;;9.20;4.87;;;-0.40;99.90;;;;;;4900512;29;20935;-76
2022/01/21 19:07:47;;;;;;;9.03;4.30;;;-0.50;99.90;;;;;;4902793;29;20520;-76
2022/01/21 19:10:23;;;;;;;11.33;5.00;;;-0.40;99.90;;;;;;4918469;29;21124;-76
2022/01/21 19:12:54;;;;;;;11.77;5.53;;;-0.40;99.90;;;;;;4900219;29;20949;-77
2022/01/21 19:15:23;;;;;;;10.17;4.80;;;-0.40;99.90;;;;;;4905502;29;20456;-74
2022/01/21 19:17:51;;;;;;;14.17;5.60;;;-0.40;99.90;;;;;;4888112;29;20485;-76
2022/01/21 19:20:23;;;;;;;11.03;5.00;;;-0.40;99.90;;;;;;4879590;29;20970;-76
2022/01/21 19:22:54;;;;;;;12.07;5.80;;;-0.40;99.90;;;;;;4863129;29;20520;-78
2022/01/21 19:25:34;;;;;;;11.53;5.30;;;-0.40;99.90;;;;;;4862478;29;20475;-75
2022/01/21 19:28:03;;;;;;;14.97;5.73;;;-0.40;99.90;;;;;;4862854;29;20455;-76
2022/01/21 19:30:31;;;;;;;11.40;5.00;;;-0.40;99.90;;;;;;4880302;29;20464;-78
2022/01/21 19:32:59;;;;;;;11.43;5.00;;;-0.30;99.90;;;;;;4880896;29;20451;-77
2022/01/21 19:35:29;;;;;;;12.57;5.40;;;-0.40;99.90;;;;;;4880151;29;20482;-78
2022/01/21 19:37:59;;;;;;;10.77;5.37;;;-0.30;99.90;;;;;;4881056;29;20490;-77
2022/01/21 19:40:32;;;;;;;11.77;5.27;;;-0.40;99.90;;;;;;4881071;29;20462;-78
2022/01/21 19:43:01;;;;;;;11.30;5.80;;;-0.40;99.90;;;;;;4881231;29;20496;-78
2022/01/21 19:45:30;;;;;;;10.37;4.90;;;-0.40;99.90;;;;;;4879095;29;20544;-74
2022/01/21 19:48:04;;;;;;;9.93;4.90;;;-0.30;99.90;;;;;;4862734;29;20460;-78
2022/01/21 19:50:40;;;;;;;10.73;4.97;;;-0.40;99.90;;;;;;4862698;29;20475;-77
2022/01/21 19:53:10;;;;;;;7.40;3.97;;;-0.30;99.90;;;;;;4862172;29;20432;-78
2022/01/21 19:55:39;;;;;;;11.33;4.27;;;-0.30;99.90;;;;;;4862059;29;20930;-79
2022/01/21 19:58:11;;;;;;;11.20;3.93;;;-0.30;99.90;;;;;;4862203;29;20478;-78
2022/01/21 20:01:08;;;;;;;9.20;4.30;;;-0.30;99.90;;;;;;4862294;29;20466;-77
2022/01/21 20:09:17;;;;;;;11.03;5.00;;;-0.30;99.90;;;;;;4863545;29;20471;-77
2022/01/21 20:12:03;;;;;;;8.57;4.73;;;-0.30;99.90;;;;;;4877812;29;20445;-78
2022/01/21 20:14:36;;;;;;;8.77;4.40;;;-0.30;99.90;;;;;;4868317;29;20461;-76
2022/01/21 20:17:05;;;;;;;9.97;4.17;;;-0.30;99.90;;;;;;4878698;29;20498;-77
2022/01/21 20:19:33;;;;;;;9.93;4.30;;;-0.30;99.90;;;;;;4887800;29;20867;-77
2022/01/21 20:22:05;;;;;;;11.07;4.40;;;-0.30;99.90;;;;;;4873159;29;20490;-78
2022/01/21 20:24:39;;;;;;;10.50;4.67;;;-0.30;99.90;;;;;;4862249;29;20571;-78
2022/01/21 20:27:08;;;;;;;9.43;4.90;;;-0.30;99.90;;;;;;4861771;29;20503;-78
2022/01/21 20:29:37;;;;;;;9.03;4.90;;;-0.30;99.90;;;;;;4861517;29;20524;-79
2022/01/21 20:32:11;;;;;;;9.53;4.57;;;-0.30;99.90;;;;;;4861573;29;20466;-80
2022/01/21 20:34:40;;;;;;;10.47;4.67;;;-0.20;99.90;;;;;;4872413;29;20521;-76
2022/01/21 20:37:10;;;;;;;12.20;4.93;;;-0.30;99.90;;;;;;4879082;29;20456;-78
2022/01/21 20:39:51;;;;;;;10.20;4.30;;;-0.30;99.90;;;;;;4880046;29;20436;-78
2022/01/21 20:42:20;;;;;;;11.73;5.33;;;-0.40;99.90;;;;;;4879277;29;20470;-77
2022/01/21 20:44:48;;;;;;;12.27;4.73;;;-0.30;99.90;;;;;;4879367;29;20589;-79
2022/01/21 20:47:16;;;;;;;13.97;4.70;;;-0.40;99.90;;;;;;4865107;29;20463;-79
2022/01/21 20:49:45;;;;;;;10.30;4.97;;;-0.40;99.90;;;;;;4860868;29;20934;-79
2022/01/21 20:52:16;;;;;;;9.20;4.40;;;-0.40;99.90;;;;;;4859908;29;20447;-79
2022/01/21 20:54:44;;;;;;;10.33;4.60;;;-0.50;99.90;;;;;;4861206;29;20466;-77
2022/01/21 20:57:13;;;;;;;9.83;4.70;;;-0.60;99.90;;;;;;4873472;29;21025;-77
2022/01/21 20:59:41;;;;;;;11.33;5.37;;;-0.60;99.90;;;;;;4879672;29;20945;-77
2022/01/21 21:02:12;;;;;;;10.43;4.77;;;-0.60;99.90;;;;;;4879638;29;20506;-77
2022/01/21 21:04:41;;;;;;;8.73;4.80;;;-0.60;99.90;;;;;;4880128;29;20477;-78
2022/01/21 21:07:10;;;;;;;9.43;4.83;;;-0.70;99.90;;;;;;4879813;29;20499;-77
2022/01/21 21:09:40;;;;;;;11.80;5.10;;;-0.80;99.90;;;;;;4864335;29;20481;-78
2022/01/21 21:12:12;;;;;;;9.10;5.00;;;-0.90;99.90;;;;;;4863039;29;20455;-77
2022/01/21 21:14:46;;;;;;;9.03;5.10;;;-0.80;99.90;;;;;;4864270;29;20929;-79
2022/01/21 21:25:39;;;;;;;14.33;5.03;;;-0.90;99.90;;;;;;4884225;29;20538;-80
2022/01/21 21:28:22;;;;;;;12.97;5.80;;;-0.90;99.90;;;;;;4884248;29;20534;-76
2022/01/21 21:31:16;;;;;;;12.17;5.10;;;-1.00;99.90;;;;;;4885260;29;20441;-77
